createdAt,value
2019-03-15T00:01:48.843Z,26.17
2019-03-15T00:04:17.502Z,25.13
2019-03-15T00:06:46.061Z,19.93
2019-03-15T00:09:14.666Z,19.10
2019-03-15T00:11:43.267Z,15.77
2019-03-15T00:14:11.819Z,16.80
2019-03-15T00:16:40.371Z,20.60
2019-03-15T00:19:08.993Z,19.23
2019-03-15T00:21:37.467Z,18.67
2019-03-15T00:24:06.127Z,16.57
2019-03-15T00:26:34.675Z,18.80
2019-03-15T00:29:03.358Z,19.60
2019-03-15T00:31:31.907Z,20.67
2019-03-15T00:34:00.490Z,19.53
2019-03-15T00:36:29.115Z,25.73
2019-03-15T00:38:57.672Z,20.03
2019-03-15T00:41:26.288Z,21.37
2019-03-15T00:43:54.874Z,21.60
2019-03-15T00:46:25.288Z,25.57
2019-03-15T00:48:54.090Z,22.83
2019-03-15T00:51:22.701Z,22.23
2019-03-15T00:53:54.316Z,22.80
2019-03-15T00:56:22.776Z,23.80
2019-03-15T00:58:51.327Z,25.77
2019-03-15T01:01:20.479Z,24.50
2019-03-15T01:03:49.130Z,27.93
2019-03-15T01:06:17.740Z,26.73
2019-03-15T01:08:46.325Z,26.97
2019-03-15T01:11:14.950Z,25.60
2019-03-15T01:13:43.506Z,25.83
2019-03-15T01:16:12.091Z,24.13
2019-03-15T01:18:40.632Z,25.30
2019-03-15T01:21:09.257Z,25.07
2019-03-15T01:23:37.830Z,24.93
2019-03-15T01:26:06.445Z,23.83
2019-03-15T01:28:35.064Z,22.17
2019-03-15T01:31:03.716Z,25.60
2019-03-15T01:33:32.331Z,24.40
2019-03-15T01:36:00.955Z,24.87
2019-03-15T01:38:29.562Z,23.80
2019-03-15T01:40:58.080Z,22.83
2019-03-15T01:43:26.695Z,22.90
2019-03-15T01:45:55.246Z,24.77
2019-03-15T01:48:23.724Z,24.70
2019-03-15T01:50:52.378Z,26.03
2019-03-15T01:53:20.926Z,27.13
2019-03-15T01:55:49.556Z,27.13
2019-03-15T01:58:18.258Z,25.67
2019-03-15T02:00:46.812Z,26.13
2019-03-15T02:03:15.427Z,24.67
2019-03-15T02:05:44.011Z,22.63
2019-03-15T02:08:12.636Z,25.23
2019-03-15T02:10:41.179Z,23.90
2019-03-15T02:13:09.829Z,23.23
2019-03-15T02:15:38.447Z,24.63
2019-03-15T02:18:06.998Z,21.27
2019-03-15T02:20:35.627Z,23.40
2019-03-15T02:23:04.242Z,22.77
2019-03-15T02:25:32.979Z,24.53
2019-03-15T02:28:01.532Z,26.43
2019-03-15T02:30:30.081Z,26.93
2019-03-15T02:32:58.791Z,24.57
2019-03-15T02:35:27.409Z,25.50
2019-03-15T02:37:55.966Z,26.50
2019-03-15T02:40:24.539Z,23.27
2019-03-15T02:42:53.305Z,23.33
2019-03-15T02:45:22.020Z,23.53
2019-03-15T02:47:50.596Z,25.60
2019-03-15T02:50:19.224Z,23.37
2019-03-15T02:52:47.894Z,22.43
2019-03-15T02:55:16.579Z,21.00
2019-03-15T02:57:45.215Z,17.33
2019-03-15T03:00:14.088Z,17.37
2019-03-15T03:02:42.887Z,15.33
2019-03-15T03:05:11.563Z,12.60
2019-03-15T03:07:40.111Z,10.97
2019-03-15T03:10:09.104Z,12.23
2019-03-15T03:12:37.821Z,11.27
2019-03-15T03:15:07.511Z,12.40
2019-03-15T03:17:36.187Z,11.97
2019-03-15T03:20:06.963Z,13.43
2019-03-15T03:22:36.418Z,13.40
2019-03-15T03:25:06.481Z,12.80
2019-03-15T03:27:35.116Z,12.93
2019-03-15T03:30:04.529Z,15.37
2019-03-15T03:32:33.123Z,17.53
2019-03-15T03:35:01.869Z,14.87
2019-03-15T03:37:30.369Z,16.33
2019-03-15T03:39:58.834Z,17.50
2019-03-15T03:42:27.624Z,17.43
2019-03-15T03:44:56.236Z,17.07
2019-03-15T03:47:24.794Z,17.90
2019-03-15T03:49:53.623Z,17.53
2019-03-15T03:52:22.301Z,17.63
2019-03-15T03:54:50.912Z,17.43
2019-03-15T03:57:19.580Z,20.00
2019-03-15T03:59:48.287Z,15.90
2019-03-15T04:02:16.975Z,15.03
2019-03-15T04:04:45.627Z,14.40
2019-03-15T04:07:14.411Z,18.17
2019-03-15T04:09:43.039Z,15.43
2019-03-15T04:12:11.599Z,14.63
2019-03-15T04:14:40.311Z,15.13
2019-03-15T04:17:08.927Z,13.10
2019-03-15T04:19:37.623Z,16.90
2019-03-15T04:22:06.169Z,16.03
2019-03-15T04:24:34.810Z,17.40
2019-03-15T04:27:03.366Z,14.30
2019-03-15T04:29:32.047Z,15.93
2019-03-15T04:32:01.441Z,11.67
2019-03-15T04:34:30.040Z,10.73
2019-03-15T04:36:58.563Z,13.13
2019-03-15T04:39:27.216Z,11.50
2019-03-15T04:41:55.766Z,14.37
2019-03-15T04:44:24.310Z,12.10
2019-03-15T04:46:52.863Z,12.83
2019-03-15T04:49:21.487Z,14.80
2019-03-15T04:51:50.155Z,12.33
2019-03-15T04:54:18.709Z,11.47
2019-03-15T04:56:47.251Z,14.77
2019-03-15T04:59:15.815Z,15.27
2019-03-15T05:01:44.522Z,16.97
2019-03-15T05:04:13.054Z,14.70
2019-03-15T05:06:41.666Z,17.17
2019-03-15T05:09:10.183Z,10.47
2019-03-15T05:11:38.802Z,13.60
2019-03-15T05:14:07.417Z,13.43
2019-03-15T05:16:36.071Z,14.13
2019-03-15T05:19:04.620Z,11.77
2019-03-15T05:21:33.171Z,11.23
2019-03-15T05:24:01.744Z,13.30
2019-03-15T05:26:30.579Z,12.27
2019-03-15T05:28:59.120Z,18.60
2019-03-15T05:31:27.701Z,16.83
2019-03-15T05:33:56.413Z,17.73
2019-03-15T05:36:25.009Z,15.13
2019-03-15T05:38:53.595Z,20.23
2019-03-15T05:41:22.207Z,15.57
2019-03-15T05:43:53.186Z,16.53
2019-03-15T05:46:20.975Z,11.30
2019-03-15T05:48:49.524Z,14.50
2019-03-15T05:51:18.207Z,11.13
2019-03-15T05:53:46.787Z,10.73
2019-03-15T05:56:15.335Z,14.03
2019-03-15T05:58:43.888Z,15.87
2019-03-15T06:01:12.455Z,10.00
2019-03-15T06:03:48.637Z,11.70
2019-03-15T06:06:11.204Z,12.93
2019-03-15T06:08:39.818Z,17.63
2019-03-15T06:11:08.302Z,8.27
2019-03-15T06:13:36.877Z,11.77
2019-03-15T06:16:05.422Z,10.70
2019-03-15T06:18:33.958Z,9.37
2019-03-15T06:21:02.609Z,10.33
2019-03-15T06:23:31.295Z,13.37
2019-03-15T06:25:59.839Z,8.27
2019-03-15T06:28:28.420Z,7.33
2019-03-15T06:30:57.002Z,10.90
2019-03-15T06:33:28.588Z,16.07
2019-03-15T06:35:55.975Z,12.23
2019-03-15T06:38:24.599Z,9.47
2019-03-15T06:40:53.144Z,10.93
2019-03-15T06:43:21.791Z,8.27
2019-03-15T06:45:50.363Z,15.07
2019-03-15T06:48:19.028Z,10.80
2019-03-15T06:50:47.605Z,10.33
2019-03-15T06:53:16.221Z,6.27
2019-03-15T06:55:44.898Z,9.10
2019-03-15T06:58:13.475Z,8.83
2019-03-15T07:00:42.131Z,9.17
2019-03-15T07:03:10.675Z,9.70
2019-03-15T07:05:39.317Z,12.70
2019-03-15T07:08:07.942Z,13.10
2019-03-15T07:10:36.581Z,13.73
2019-03-15T07:13:05.210Z,11.97
2019-03-15T07:15:33.830Z,8.80
2019-03-15T07:18:02.512Z,12.53
2019-03-15T07:20:31.147Z,9.27
2019-03-15T07:22:59.831Z,12.77
2019-03-15T07:25:28.381Z,12.17
2019-03-15T07:27:56.957Z,13.97
2019-03-15T07:30:25.504Z,13.63
2019-03-15T07:32:54.050Z,16.53
2019-03-15T07:35:22.766Z,14.17
2019-03-15T07:37:51.458Z,10.90
2019-03-15T07:40:20.007Z,11.77
2019-03-15T07:42:48.653Z,9.77
2019-03-15T07:45:17.332Z,7.70
2019-03-15T07:47:45.877Z,11.57
2019-03-15T07:50:15.493Z,7.13
2019-03-15T07:52:44.181Z,11.80
2019-03-15T07:55:12.854Z,7.43
2019-03-15T07:57:41.479Z,14.40
2019-03-15T08:00:15.612Z,9.53
2019-03-15T08:02:44.146Z,14.20
2019-03-15T08:05:12.692Z,10.00
2019-03-15T08:07:45.146Z,10.60
2019-03-15T08:10:12.639Z,11.57
2019-03-15T08:12:41.255Z,8.67
2019-03-15T08:15:12.260Z,10.37
2019-03-15T08:17:40.871Z,12.07
2019-03-15T08:20:12.032Z,10.83
2019-03-15T08:22:40.852Z,9.70
2019-03-15T08:25:10.923Z,8.60
2019-03-15T08:27:39.608Z,8.03
2019-03-15T08:30:13.006Z,4.53
2019-03-15T08:32:43.506Z,6.83
2019-03-15T08:35:12.471Z,7.33
2019-03-15T08:37:41.185Z,4.83
2019-03-15T08:40:12.034Z,6.17
2019-03-15T08:42:40.639Z,7.60
2019-03-15T08:45:20.259Z,2.47
2019-03-15T08:47:48.944Z,4.93
2019-03-15T08:50:18.813Z,4.37
2019-03-15T08:52:47.636Z,5.70
2019-03-15T08:55:16.323Z,4.73
2019-03-15T08:57:44.889Z,5.00
2019-03-15T09:00:15.523Z,6.00
2019-03-15T09:02:44.210Z,3.43
2019-03-15T09:05:13.791Z,6.23
2019-03-15T09:07:42.503Z,7.30
2019-03-15T09:10:22.572Z,4.23
2019-03-15T09:12:45.602Z,5.03
2019-03-15T09:15:14.420Z,6.70
2019-03-15T09:17:43.034Z,3.73
2019-03-15T09:20:15.400Z,4.90
2019-03-15T09:22:44.041Z,7.13
2019-03-15T09:25:19.937Z,5.10
2019-03-15T09:27:46.749Z,6.13
2019-03-15T09:30:23.714Z,5.30
2019-03-15T09:32:46.432Z,5.43
2019-03-15T09:35:15.148Z,3.63
2019-03-15T09:37:46.972Z,4.07
2019-03-15T09:40:16.349Z,4.27
2019-03-15T09:42:45.095Z,6.00
2019-03-15T09:45:15.159Z,4.53
2019-03-15T09:47:43.772Z,5.33
2019-03-15T09:50:22.941Z,5.13
2019-03-15T09:52:43.539Z,4.13
2019-03-15T09:55:13.305Z,5.80
2019-03-15T09:57:41.919Z,4.50
2019-03-15T10:00:16.508Z,4.33
2019-03-15T10:02:45.294Z,5.77
2019-03-15T10:05:14.122Z,5.90
2019-03-15T10:07:43.660Z,4.30
2019-03-15T10:10:18.941Z,4.90
2019-03-15T10:12:47.694Z,2.17
2019-03-15T10:15:17.097Z,4.27
2019-03-15T10:17:45.766Z,8.93
2019-03-15T10:20:15.473Z,7.00
2019-03-15T10:22:44.095Z,3.10
2019-03-15T10:25:13.877Z,3.33
2019-03-15T10:27:42.590Z,2.37
2019-03-15T10:30:14.276Z,7.93
2019-03-15T10:32:43.112Z,3.30
2019-03-15T10:35:12.032Z,2.60
2019-03-15T10:37:40.713Z,2.83
2019-03-15T10:40:12.797Z,2.03
2019-03-15T10:42:41.349Z,3.83
2019-03-15T10:45:10.359Z,3.53
2019-03-15T10:47:42.151Z,1.57
2019-03-15T10:50:17.180Z,1.63
2019-03-15T10:52:45.968Z,2.27
2019-03-15T10:55:14.652Z,7.03
2019-03-15T10:57:43.261Z,4.60
2019-03-15T11:00:17.388Z,4.60
2019-03-15T11:02:45.998Z,4.03
2019-03-15T11:05:14.682Z,3.27
2019-03-15T11:07:43.332Z,7.83
2019-03-15T11:10:12.717Z,4.17
2019-03-15T11:12:41.330Z,4.40
2019-03-15T11:15:11.257Z,4.53
2019-03-15T11:17:39.950Z,2.80
2019-03-15T11:20:10.230Z,6.77
2019-03-15T11:22:38.952Z,5.07
2019-03-15T11:25:09.443Z,4.37
2019-03-15T11:27:38.123Z,4.43
2019-03-15T11:30:09.209Z,4.40
2019-03-15T11:32:37.859Z,3.83
2019-03-15T11:35:08.247Z,5.13
2019-03-15T11:37:36.867Z,2.73
2019-03-15T11:40:13.848Z,4.47
2019-03-15T11:42:41.563Z,4.87
2019-03-15T11:45:11.259Z,4.03
2019-03-15T11:47:56.386Z,3.33
2019-03-15T11:50:18.411Z,5.43
2019-03-15T11:52:47.063Z,5.90
2019-03-15T11:55:15.747Z,4.83
2019-03-15T11:57:44.372Z,5.83
2019-03-15T12:00:21.774Z,4.23
2019-03-15T12:02:50.387Z,3.33
2019-03-15T12:05:18.941Z,5.17
2019-03-15T12:07:47.571Z,6.43
2019-03-15T12:10:19.271Z,5.40
2019-03-15T12:12:47.883Z,4.03
2019-03-15T12:15:17.319Z,5.50
2019-03-15T12:17:45.942Z,5.70
2019-03-15T12:20:14.922Z,9.07
2019-03-15T12:22:43.567Z,5.17
2019-03-15T12:25:12.661Z,6.33
2019-03-15T12:27:41.284Z,10.00
2019-03-15T12:30:14.513Z,7.20
2019-03-15T12:32:43.205Z,8.10
2019-03-15T12:35:12.688Z,9.00
2019-03-15T12:37:41.400Z,10.60
2019-03-15T12:40:12.254Z,11.20
2019-03-15T12:42:40.802Z,11.00
2019-03-15T12:45:10.618Z,10.60
2019-03-15T12:47:39.238Z,7.63
2019-03-15T12:50:11.785Z,6.97
2019-03-15T12:52:47.304Z,12.87
2019-03-15T12:55:14.145Z,10.83
2019-03-15T12:57:43.712Z,8.17
2019-03-15T13:00:16.087Z,9.30
2019-03-15T13:02:44.710Z,10.83
2019-03-15T13:05:13.487Z,9.37
2019-03-15T13:07:42.056Z,10.47
2019-03-15T13:10:20.485Z,9.40
2019-03-15T13:12:49.084Z,14.80
2019-03-15T13:15:17.875Z,9.37
2019-03-15T13:17:46.498Z,10.37
2019-03-15T13:20:18.151Z,10.37
2019-03-15T13:22:46.839Z,14.43
2019-03-15T13:25:15.527Z,12.23
2019-03-15T13:27:44.120Z,22.33
2019-03-15T13:30:18.287Z,17.07
2019-03-15T13:32:48.559Z,14.93
2019-03-15T13:35:17.183Z,21.13
2019-03-15T13:37:45.731Z,14.03
2019-03-15T13:40:16.077Z,13.70
2019-03-15T13:42:47.501Z,12.47
2019-03-15T13:45:16.682Z,8.13
2019-03-15T13:47:45.273Z,13.00
2019-03-15T13:50:15.932Z,10.03
2019-03-15T13:52:44.612Z,12.93
2019-03-15T13:55:13.363Z,9.13
2019-03-15T13:57:41.986Z,13.17
2019-03-15T14:00:18.298Z,15.13
2019-03-15T14:02:46.913Z,14.80
2019-03-15T14:05:15.536Z,13.97
2019-03-15T14:07:44.121Z,11.83
2019-03-15T14:10:18.431Z,13.53
2019-03-15T14:12:47.124Z,17.63
2019-03-15T14:15:18.036Z,11.63
2019-03-15T14:17:46.719Z,15.80
2019-03-15T14:20:15.515Z,9.50
2019-03-15T14:22:44.424Z,12.83
2019-03-15T14:25:27.816Z,14.40
2019-03-15T14:27:56.466Z,13.67
2019-03-15T14:30:25.098Z,14.50
2019-03-15T14:32:53.818Z,9.80
2019-03-15T14:35:25.697Z,12.37
2019-03-15T14:37:54.492Z,15.03
2019-03-15T14:40:23.275Z,14.13
2019-03-15T14:42:52.090Z,12.57
2019-03-15T14:45:20.853Z,18.40
2019-03-15T14:47:49.533Z,11.60
2019-03-15T14:50:18.187Z,9.20
2019-03-15T14:52:46.896Z,11.10
2019-03-15T14:55:16.175Z,10.93
2019-03-15T14:57:52.434Z,12.30
2019-03-15T15:00:19.136Z,14.70
2019-03-15T15:02:47.879Z,14.10
2019-03-15T15:05:16.498Z,12.60
2019-03-15T15:07:45.117Z,15.37
2019-03-15T15:10:17.520Z,13.07
2019-03-15T15:12:46.171Z,14.93
2019-03-15T15:15:19.358Z,13.10
2019-03-15T15:17:47.987Z,15.63
2019-03-15T15:20:16.630Z,13.80
2019-03-15T15:22:45.462Z,14.47
2019-03-15T15:25:20.603Z,12.53
2019-03-15T15:28:03.924Z,11.70
2019-03-15T15:30:22.091Z,12.73
2019-03-15T15:32:55.261Z,13.60
2019-03-15T15:35:32.275Z,16.93
2019-03-15T15:38:01.223Z,17.53
2019-03-15T15:40:29.784Z,16.93
2019-03-15T15:42:58.498Z,18.03
2019-03-15T15:45:29.680Z,17.60
2019-03-15T15:47:57.324Z,16.93
2019-03-15T15:50:25.967Z,17.23
2019-03-15T15:52:54.663Z,19.87
2019-03-15T15:55:23.378Z,20.10
2019-03-15T15:57:52.410Z,23.50
2019-03-15T16:00:21.107Z,25.07
2019-03-15T16:02:50.022Z,23.77
2019-03-15T16:05:18.657Z,18.80
2019-03-15T16:07:47.234Z,21.87
2019-03-15T16:10:18.235Z,20.50
2019-03-15T16:12:46.320Z,24.00
2019-03-15T16:15:19.703Z,18.37
2019-03-15T16:17:48.607Z,15.43
2019-03-15T16:20:17.274Z,16.07
2019-03-15T16:22:46.060Z,19.67
2019-03-15T16:25:15.088Z,20.80
2019-03-15T16:27:44.264Z,21.53
2019-03-15T16:30:22.127Z,17.43
2019-03-15T16:32:50.757Z,17.00
2019-03-15T16:35:19.371Z,18.03
2019-03-15T16:37:48.018Z,15.53
2019-03-15T16:40:16.809Z,16.60
2019-03-15T16:42:45.504Z,13.43
2019-03-15T16:45:26.093Z,16.97
2019-03-15T16:47:54.630Z,18.03
2019-03-15T16:50:23.319Z,17.00
2019-03-15T16:52:51.925Z,17.60
2019-03-15T16:55:20.725Z,18.27
2019-03-15T16:57:49.267Z,23.23
2019-03-15T17:00:18.042Z,21.40
2019-03-15T17:02:46.680Z,14.47
2019-03-15T17:05:15.454Z,14.83
2019-03-15T17:07:44.031Z,12.87
2019-03-15T17:10:16.530Z,13.43
2019-03-15T17:12:45.314Z,10.37
2019-03-15T17:15:19.106Z,11.10
2019-03-15T17:17:47.819Z,9.37
2019-03-15T17:20:19.176Z,11.77
2019-03-15T17:22:49.385Z,10.93
2019-03-15T17:25:18.002Z,13.83
2019-03-15T17:27:49.178Z,13.47
2019-03-15T17:30:18.000Z,12.00
2019-03-15T17:32:46.685Z,15.17
2019-03-15T17:35:19.527Z,12.60
2019-03-15T17:37:48.118Z,14.87
2019-03-15T17:40:18.683Z,13.30
2019-03-15T17:42:47.477Z,14.87
2019-03-15T17:45:16.193Z,22.90
2019-03-15T17:47:46.565Z,18.83
2019-03-15T17:50:26.727Z,16.60
2019-03-15T17:52:58.378Z,16.23
2019-03-15T17:55:27.123Z,18.33
2019-03-15T17:57:59.643Z,52.17
2019-03-15T18:00:32.396Z,25.33
2019-03-15T18:03:01.006Z,18.10
2019-03-15T18:05:29.692Z,18.40
2019-03-15T18:07:58.366Z,19.97
2019-03-15T18:10:26.982Z,21.43
2019-03-15T18:12:55.850Z,18.47
2019-03-15T18:15:28.905Z,18.03
2019-03-15T18:17:59.994Z,13.40
2019-03-15T18:20:27.778Z,12.80
2019-03-15T18:22:56.361Z,13.77
2019-03-15T18:25:24.924Z,17.03
2019-03-15T18:27:54.039Z,12.63
2019-03-15T18:30:22.783Z,20.23
2019-03-15T18:32:51.570Z,15.20
2019-03-15T18:35:32.964Z,14.47
2019-03-15T18:37:50.706Z,16.67
2019-03-15T18:40:20.122Z,13.53
2019-03-15T18:42:49.024Z,18.30
2019-03-15T18:45:20.171Z,16.03
2019-03-15T18:47:52.631Z,15.10
2019-03-15T18:50:25.291Z,14.70
2019-03-15T18:52:56.099Z,16.10
2019-03-15T18:55:24.842Z,18.53
2019-03-15T18:57:53.508Z,14.57
2019-03-15T19:00:25.795Z,17.13
2019-03-15T19:02:54.374Z,16.10
2019-03-15T19:05:22.992Z,16.27
2019-03-15T19:07:52.033Z,14.50
2019-03-15T19:10:21.254Z,13.77
2019-03-15T19:12:49.820Z,17.80
2019-03-15T19:15:21.939Z,17.07
2019-03-15T19:17:50.665Z,16.90
2019-03-15T19:20:19.351Z,18.67
2019-03-15T19:22:48.142Z,19.23
2019-03-15T19:25:17.025Z,18.27
2019-03-15T19:27:45.724Z,20.17
2019-03-15T19:30:16.594Z,16.90
2019-03-15T19:32:45.247Z,17.67
2019-03-15T19:35:14.067Z,16.93
2019-03-15T19:37:43.949Z,21.93
2019-03-15T19:40:19.493Z,23.03
2019-03-15T19:42:50.715Z,29.03
2019-03-15T19:45:19.377Z,26.20
2019-03-15T19:47:47.892Z,24.13
2019-03-15T19:50:18.754Z,26.00
2019-03-15T19:52:47.394Z,19.67
2019-03-15T19:55:16.482Z,20.13
2019-03-15T19:57:45.184Z,19.53
2019-03-15T20:00:15.396Z,16.93
2019-03-15T20:02:44.167Z,15.27
2019-03-15T20:05:12.966Z,15.00
2019-03-15T20:07:43.346Z,13.73
2019-03-15T20:10:16.333Z,12.57
2019-03-15T20:12:44.388Z,9.80
2019-03-15T20:15:15.099Z,9.03
2019-03-15T20:17:46.926Z,10.57
2019-03-15T20:20:19.349Z,14.73
2019-03-15T20:22:47.754Z,9.47
2019-03-15T20:25:16.775Z,10.93
2019-03-15T20:27:47.025Z,8.13
2019-03-15T20:30:22.045Z,8.60
2019-03-15T20:32:47.407Z,10.37
2019-03-15T20:35:16.093Z,8.43
2019-03-15T20:37:45.095Z,10.97
2019-03-15T20:40:14.530Z,9.73
2019-03-15T20:42:43.622Z,9.80
2019-03-15T20:45:20.286Z,8.60
2019-03-15T20:47:48.972Z,9.67
2019-03-15T20:50:17.767Z,12.20
2019-03-15T20:52:46.404Z,7.00
2019-03-15T20:55:15.031Z,10.57
2019-03-15T20:57:43.653Z,7.17
2019-03-15T21:00:14.458Z,6.67
2019-03-15T21:02:43.153Z,9.17
2019-03-15T21:05:11.956Z,6.93
2019-03-15T21:07:43.609Z,9.47
2019-03-15T21:10:13.551Z,9.70
2019-03-15T21:12:44.976Z,8.47
2019-03-15T21:15:14.640Z,11.73
2019-03-15T21:17:43.312Z,9.77
2019-03-15T21:20:15.832Z,10.13
2019-03-15T21:22:44.851Z,9.63
2019-03-15T21:25:13.463Z,9.80
2019-03-15T21:27:52.806Z,7.47
2019-03-15T21:30:22.972Z,4.13
2019-03-15T21:32:51.646Z,6.07
2019-03-15T21:35:20.260Z,6.97
2019-03-15T21:37:48.920Z,8.17
2019-03-15T21:40:19.491Z,6.77
2019-03-15T21:42:48.154Z,8.87
2019-03-15T21:45:16.841Z,16.10
2019-03-15T21:47:45.536Z,9.47
2019-03-15T21:50:18.374Z,10.90
2019-03-15T21:52:46.986Z,9.97
2019-03-15T21:55:15.662Z,8.63
2019-03-15T21:57:44.244Z,9.67
2019-03-15T22:00:17.442Z,7.43
2019-03-15T22:02:46.132Z,5.40
2019-03-15T22:05:14.869Z,9.13
2019-03-15T22:07:43.410Z,9.80
2019-03-15T22:10:13.863Z,10.73
2019-03-15T22:12:42.582Z,11.43
2019-03-15T22:15:12.063Z,8.67
2019-03-15T22:17:40.883Z,8.97
2019-03-15T22:20:11.354Z,10.13
2019-03-15T22:22:40.076Z,11.47
2019-03-15T22:25:09.568Z,11.37
2019-03-15T22:27:38.401Z,9.13
2019-03-15T22:30:12.114Z,12.23
2019-03-15T22:32:40.804Z,11.70
2019-03-15T22:35:09.515Z,9.50
2019-03-15T22:37:38.209Z,8.07
2019-03-15T22:40:14.535Z,12.00
2019-03-15T22:42:46.221Z,10.20
2019-03-15T22:45:15.419Z,11.27
2019-03-15T22:47:44.220Z,11.40
2019-03-15T22:50:13.915Z,10.10
2019-03-15T22:52:42.528Z,11.30
2019-03-15T22:55:11.552Z,12.47
2019-03-15T22:57:40.263Z,11.43
2019-03-15T23:00:14.247Z,9.30
2019-03-15T23:02:42.866Z,12.97
2019-03-15T23:05:11.577Z,9.37
2019-03-15T23:07:40.263Z,10.17
2019-03-15T23:10:10.382Z,8.70
2019-03-15T23:12:39.069Z,11.27
2019-03-15T23:15:13.620Z,10.67
2019-03-15T23:17:42.292Z,10.03
2019-03-15T23:20:15.202Z,14.87
2019-03-15T23:22:43.671Z,17.07
2019-03-15T23:25:12.502Z,12.97
2019-03-15T23:27:41.125Z,7.03
2019-03-15T23:30:15.435Z,8.30
2019-03-15T23:32:44.142Z,9.27
2019-03-15T23:35:12.828Z,9.43
2019-03-15T23:37:41.512Z,7.87
2019-03-15T23:40:14.172Z,12.73
2019-03-15T23:42:42.698Z,9.77
2019-03-15T23:45:11.783Z,11.43
2019-03-15T23:47:40.431Z,8.30
2019-03-15T23:50:13.782Z,12.57
2019-03-15T23:52:42.471Z,11.23
2019-03-15T23:55:11.387Z,9.37
2019-03-15T23:57:40.081Z,14.90
